sensor_id;sensor_type;location;lat;lon;timestamp;P1;durP1;ratioP1;P2;durP2;ratioP2
52480;SDS011;38393;52.404;13.532;2023-09-19T00:00:18;5.03;;;1.50;;
52480;SDS011;38393;52.404;13.532;2023-09-19T00:02:46;3.95;;;1.67;;
52480;SDS011;38393;52.404;13.532;2023-09-19T00:05:16;3.63;;;1.45;;
52480;SDS011;38393;52.404;13.532;2023-09-19T00:07:42;2.60;;;1.52;;
52480;SDS011;38393;52.404;13.532;2023-09-19T00:10:07;2.95;;;1.48;;
52480;SDS011;38393;52.404;13.532;2023-09-19T00:12:34;7.30;;;1.67;;
52480;SDS011;38393;52.404;13.532;2023-09-19T00:15:00;4.30;;;1.75;;
52480;SDS011;38393;52.404;13.532;2023-09-19T00:17:26;4.60;;;1.63;;
52480;SDS011;38393;52.404;13.532;2023-09-19T00:19:52;6.35;;;1.75;;
52480;SDS011;38393;52.404;13.532;2023-09-19T00:22:17;2.35;;;1.58;;
52480;SDS011;38393;52.404;13.532;2023-09-19T00:24:43;3.63;;;1.50;;
52480;SDS011;38393;52.404;13.532;2023-09-19T00:27:09;3.20;;;1.40;;
52480;SDS011;38393;52.404;13.532;2023-09-19T00:29:34;6.13;;;1.77;;
52480;SDS011;38393;52.404;13.532;2023-09-19T00:32:00;3.50;;;1.55;;
52480;SDS011;38393;52.404;13.532;2023-09-19T00:34:28;3.42;;;1.58;;
52480;SDS011;38393;52.404;13.532;2023-09-19T00:36:54;3.28;;;1.90;;
52480;SDS011;38393;52.404;13.532;2023-09-19T00:39:20;5.25;;;2.05;;
52480;SDS011;38393;52.404;13.532;2023-09-19T00:41:46;2.28;;;1.60;;
52480;SDS011;38393;52.404;13.532;2023-09-19T00:44:12;3.53;;;1.65;;
52480;SDS011;38393;52.404;13.532;2023-09-19T00:46:38;2.97;;;1.80;;
52480;SDS011;38393;52.404;13.532;2023-09-19T00:49:04;3.22;;;1.30;;
52480;SDS011;38393;52.404;13.532;2023-09-19T00:51:32;3.25;;;1.67;;
52480;SDS011;38393;52.404;13.532;2023-09-19T00:54:00;4.30;;;2.00;;
52480;SDS011;38393;52.404;13.532;2023-09-19T00:56:27;2.75;;;1.92;;
52480;SDS011;38393;52.404;13.532;2023-09-19T00:58:53;2.33;;;1.40;;
52480;SDS011;38393;52.404;13.532;2023-09-19T01:01:18;4.30;;;1.60;;
52480;SDS011;38393;52.404;13.532;2023-09-19T01:03:44;2.97;;;1.73;;
52480;SDS011;38393;52.404;13.532;2023-09-19T01:06:10;3.42;;;1.60;;
52480;SDS011;38393;52.404;13.532;2023-09-19T01:08:35;3.00;;;1.60;;
52480;SDS011;38393;52.404;13.532;2023-09-19T01:11:13;2.45;;;1.60;;
52480;SDS011;38393;52.404;13.532;2023-09-19T01:13:47;4.82;;;1.75;;
52480;SDS011;38393;52.404;13.532;2023-09-19T01:16:28;3.78;;;1.70;;
52480;SDS011;38393;52.404;13.532;2023-09-19T01:22:00;6.97;;;1.70;;
52480;SDS011;38393;52.404;13.532;2023-09-19T01:30:09;5.63;;;1.50;;
52480;SDS011;38393;52.404;13.532;2023-09-19T01:32:36;1.85;;;1.23;;
52480;SDS011;38393;52.404;13.532;2023-09-19T01:35:02;2.25;;;1.40;;
52480;SDS011;38393;52.404;13.532;2023-09-19T01:37:31;2.60;;;1.35;;
52480;SDS011;38393;52.404;13.532;2023-09-19T01:39:58;2.45;;;1.60;;
52480;SDS011;38393;52.404;13.532;2023-09-19T01:45:24;3.08;;;1.63;;
52480;SDS011;38393;52.404;13.532;2023-09-19T01:47:53;5.57;;;1.63;;
52480;SDS011;38393;52.404;13.532;2023-09-19T01:50:29;2.22;;;1.40;;
52480;SDS011;38393;52.404;13.532;2023-09-19T01:53:05;1.80;;;1.45;;
52480;SDS011;38393;52.404;13.532;2023-09-19T01:55:40;2.22;;;1.50;;
52480;SDS011;38393;52.404;13.532;2023-09-19T01:58:17;2.33;;;1.50;;
52480;SDS011;38393;52.404;13.532;2023-09-19T02:00:48;2.03;;;1.60;;
52480;SDS011;38393;52.404;13.532;2023-09-19T02:03:19;3.42;;;1.60;;
52480;SDS011;38393;52.404;13.532;2023-09-19T02:05:50;2.33;;;1.40;;
52480;SDS011;38393;52.404;13.532;2023-09-19T02:08:19;4.93;;;1.50;;
52480;SDS011;38393;52.404;13.532;2023-09-19T02:10:45;2.85;;;1.60;;
52480;SDS011;38393;52.404;13.532;2023-09-19T02:13:17;4.78;;;1.60;;
52480;SDS011;38393;52.404;13.532;2023-09-19T02:15:44;3.63;;;1.60;;
52480;SDS011;38393;52.404;13.532;2023-09-19T02:18:09;4.05;;;1.80;;
52480;SDS011;38393;52.404;13.532;2023-09-19T02:20:36;4.32;;;2.15;;
52480;SDS011;38393;52.404;13.532;2023-09-19T02:23:02;2.92;;;1.70;;
52480;SDS011;38393;52.404;13.532;2023-09-19T02:25:28;3.10;;;1.80;;
52480;SDS011;38393;52.404;13.532;2023-09-19T02:27:54;3.05;;;1.60;;
52480;SDS011;38393;52.404;13.532;2023-09-19T02:30:23;2.85;;;1.48;;
52480;SDS011;38393;52.404;13.532;2023-09-19T02:32:52;2.53;;;1.50;;
52480;SDS011;38393;52.404;13.532;2023-09-19T02:35:17;4.82;;;1.90;;
52480;SDS011;38393;52.404;13.532;2023-09-19T02:37:46;4.45;;;1.70;;
52480;SDS011;38393;52.404;13.532;2023-09-19T02:40:12;3.13;;;1.70;;
52480;SDS011;38393;52.404;13.532;2023-09-19T02:42:47;3.38;;;1.63;;
52480;SDS011;38393;52.404;13.532;2023-09-19T02:45:17;6.15;;;1.90;;
52480;SDS011;38393;52.404;13.532;2023-09-19T02:47:44;4.95;;;1.80;;
52480;SDS011;38393;52.404;13.532;2023-09-19T02:50:10;2.53;;;1.60;;
52480;SDS011;38393;52.404;13.532;2023-09-19T02:52:36;3.97;;;1.80;;
52480;SDS011;38393;52.404;13.532;2023-09-19T02:55:02;4.28;;;1.70;;
52480;SDS011;38393;52.404;13.532;2023-09-19T02:57:30;4.60;;;1.80;;
52480;SDS011;38393;52.404;13.532;2023-09-19T02:59:58;4.28;;;1.80;;
52480;SDS011;38393;52.404;13.532;2023-09-19T03:02:25;5.47;;;1.65;;
52480;SDS011;38393;52.404;13.532;2023-09-19T03:04:52;3.58;;;1.73;;
52480;SDS011;38393;52.404;13.532;2023-09-19T03:07:18;3.22;;;2.10;;
52480;SDS011;38393;52.404;13.532;2023-09-19T03:09:43;2.78;;;1.70;;
52480;SDS011;38393;52.404;13.532;2023-09-19T03:12:09;8.55;;;2.10;;
52480;SDS011;38393;52.404;13.532;2023-09-19T03:14:35;5.20;;;2.00;;
52480;SDS011;38393;52.404;13.532;2023-09-19T03:17:01;2.60;;;1.58;;
52480;SDS011;38393;52.404;13.532;2023-09-19T03:19:29;5.13;;;2.10;;
52480;SDS011;38393;52.404;13.532;2023-09-19T03:21:55;3.58;;;1.48;;
52480;SDS011;38393;52.404;13.532;2023-09-19T03:24:22;2.47;;;1.60;;
52480;SDS011;38393;52.404;13.532;2023-09-19T03:26:48;7.00;;;2.00;;
52480;SDS011;38393;52.404;13.532;2023-09-19T03:29:14;2.97;;;1.63;;
52480;SDS011;38393;52.404;13.532;2023-09-19T03:31:40;6.28;;;1.85;;
52480;SDS011;38393;52.404;13.532;2023-09-19T03:34:06;3.25;;;1.60;;
52480;SDS011;38393;52.404;13.532;2023-09-19T03:36:31;2.25;;;1.52;;
52480;SDS011;38393;52.404;13.532;2023-09-19T03:38:57;2.95;;;1.50;;
52480;SDS011;38393;52.404;13.532;2023-09-19T03:41:22;2.90;;;1.70;;
52480;SDS011;38393;52.404;13.532;2023-09-19T03:43:48;3.85;;;1.85;;
52480;SDS011;38393;52.404;13.532;2023-09-19T03:46:14;3.17;;;1.98;;
52480;SDS011;38393;52.404;13.532;2023-09-19T03:48:40;4.32;;;1.80;;
52480;SDS011;38393;52.404;13.532;2023-09-19T03:51:05;4.55;;;1.88;;
52480;SDS011;38393;52.404;13.532;2023-09-19T03:53:31;6.13;;;1.80;;
52480;SDS011;38393;52.404;13.532;2023-09-19T03:55:56;2.75;;;1.80;;
52480;SDS011;38393;52.404;13.532;2023-09-19T03:58:22;3.30;;;1.90;;
52480;SDS011;38393;52.404;13.532;2023-09-19T04:00:48;3.50;;;1.63;;
52480;SDS011;38393;52.404;13.532;2023-09-19T04:03:15;2.80;;;1.30;;
52480;SDS011;38393;52.404;13.532;2023-09-19T04:05:45;5.32;;;1.60;;
52480;SDS011;38393;52.404;13.532;2023-09-19T04:08:12;3.25;;;1.67;;
52480;SDS011;38393;52.404;13.532;2023-09-19T04:10:37;3.95;;;1.77;;
52480;SDS011;38393;52.404;13.532;2023-09-19T04:13:03;2.67;;;1.40;;
52480;SDS011;38393;52.404;13.532;2023-09-19T04:15:28;6.35;;;1.50;;
52480;SDS011;38393;52.404;13.532;2023-09-19T04:17:54;2.72;;;1.35;;
52480;SDS011;38393;52.404;13.532;2023-09-19T04:20:20;2.38;;;1.48;;
52480;SDS011;38393;52.404;13.532;2023-09-19T04:22:48;2.97;;;1.48;;
52480;SDS011;38393;52.404;13.532;2023-09-19T04:25:13;2.33;;;1.45;;
52480;SDS011;38393;52.404;13.532;2023-09-19T04:27:39;2.65;;;1.73;;
52480;SDS011;38393;52.404;13.532;2023-09-19T04:30:06;3.05;;;1.52;;
52480;SDS011;38393;52.404;13.532;2023-09-19T04:32:36;2.17;;;1.40;;
52480;SDS011;38393;52.404;13.532;2023-09-19T04:35:08;3.72;;;1.38;;
52480;SDS011;38393;52.404;13.532;2023-09-19T04:37:36;3.22;;;1.70;;
52480;SDS011;38393;52.404;13.532;2023-09-19T04:40:03;2.38;;;1.50;;
52480;SDS011;38393;52.404;13.532;2023-09-19T04:42:31;2.58;;;1.50;;
52480;SDS011;38393;52.404;13.532;2023-09-19T04:44:56;2.67;;;1.60;;
52480;SDS011;38393;52.404;13.532;2023-09-19T04:47:22;4.63;;;1.50;;
52480;SDS011;38393;52.404;13.532;2023-09-19T04:49:47;2.80;;;1.50;;
52480;SDS011;38393;52.404;13.532;2023-09-19T04:52:13;3.00;;;1.20;;
52480;SDS011;38393;52.404;13.532;2023-09-19T04:54:40;6.10;;;1.50;;
52480;SDS011;38393;52.404;13.532;2023-09-19T04:57:06;1.90;;;1.38;;
52480;SDS011;38393;52.404;13.532;2023-09-19T04:59:32;2.88;;;1.50;;
52480;SDS011;38393;52.404;13.532;2023-09-19T05:01:58;4.82;;;1.40;;
52480;SDS011;38393;52.404;13.532;2023-09-19T05:04:23;2.45;;;1.67;;
52480;SDS011;38393;52.404;13.532;2023-09-19T05:06:49;3.28;;;1.60;;
52480;SDS011;38393;52.404;13.532;2023-09-19T05:09:15;3.55;;;1.50;;
52480;SDS011;38393;52.404;13.532;2023-09-19T05:11:44;1.85;;;1.58;;
52480;SDS011;38393;52.404;13.532;2023-09-19T05:14:09;2.67;;;1.40;;
52480;SDS011;38393;52.404;13.532;2023-09-19T05:16:36;2.15;;;1.55;;
52480;SDS011;38393;52.404;13.532;2023-09-19T05:19:02;3.05;;;1.40;;
52480;SDS011;38393;52.404;13.532;2023-09-19T05:21:27;2.25;;;1.60;;
52480;SDS011;38393;52.404;13.532;2023-09-19T05:23:54;2.33;;;1.50;;
52480;SDS011;38393;52.404;13.532;2023-09-19T05:26:20;2.13;;;1.60;;
52480;SDS011;38393;52.404;13.532;2023-09-19T05:28:46;2.00;;;1.50;;
52480;SDS011;38393;52.404;13.532;2023-09-19T05:31:13;1.85;;;1.40;;
52480;SDS011;38393;52.404;13.532;2023-09-19T05:33:39;3.40;;;1.60;;
52480;SDS011;38393;52.404;13.532;2023-09-19T05:36:04;3.38;;;1.30;;
52480;SDS011;38393;52.404;13.532;2023-09-19T05:38:30;2.70;;;1.33;;
52480;SDS011;38393;52.404;13.532;2023-09-19T05:40:55;4.00;;;1.50;;
52480;SDS011;38393;52.404;13.532;2023-09-19T05:43:21;3.53;;;1.65;;
52480;SDS011;38393;52.404;13.532;2023-09-19T05:45:47;5.40;;;1.35;;
52480;SDS011;38393;52.404;13.532;2023-09-19T05:48:13;4.47;;;1.90;;
52480;SDS011;38393;52.404;13.532;2023-09-19T05:50:40;4.03;;;1.63;;
52480;SDS011;38393;52.404;13.532;2023-09-19T05:53:06;1.83;;;1.30;;
52480;SDS011;38393;52.404;13.532;2023-09-19T05:55:32;1.92;;;1.40;;
52480;SDS011;38393;52.404;13.532;2023-09-19T05:57:58;5.15;;;1.60;;
52480;SDS011;38393;52.404;13.532;2023-09-19T06:00:24;5.20;;;1.50;;
52480;SDS011;38393;52.404;13.532;2023-09-19T06:02:56;2.05;;;1.30;;
52480;SDS011;38393;52.404;13.532;2023-09-19T06:05:23;3.95;;;1.50;;
52480;SDS011;38393;52.404;13.532;2023-09-19T06:07:49;3.72;;;1.60;;
52480;SDS011;38393;52.404;13.532;2023-09-19T06:10:15;3.28;;;1.60;;
52480;SDS011;38393;52.404;13.532;2023-09-19T06:12:42;3.20;;;1.40;;
52480;SDS011;38393;52.404;13.532;2023-09-19T06:15:08;4.57;;;1.60;;
52480;SDS011;38393;52.404;13.532;2023-09-19T06:17:37;3.63;;;1.60;;
52480;SDS011;38393;52.404;13.532;2023-09-19T06:20:06;3.90;;;1.63;;
52480;SDS011;38393;52.404;13.532;2023-09-19T06:22:43;2.13;;;1.65;;
52480;SDS011;38393;52.404;13.532;2023-09-19T06:25:09;3.75;;;1.58;;
52480;SDS011;38393;52.404;13.532;2023-09-19T06:27:44;1.92;;;1.55;;
52480;SDS011;38393;52.404;13.532;2023-09-19T06:30:13;3.33;;;1.52;;
52480;SDS011;38393;52.404;13.532;2023-09-19T06:32:39;2.08;;;1.50;;
52480;SDS011;38393;52.404;13.532;2023-09-19T06:35:05;2.63;;;1.58;;
52480;SDS011;38393;52.404;13.532;2023-09-19T06:37:36;3.50;;;1.70;;
52480;SDS011;38393;52.404;13.532;2023-09-19T06:40:14;3.60;;;1.77;;
52480;SDS011;38393;52.404;13.532;2023-09-19T06:42:44;6.72;;;1.70;;
52480;SDS011;38393;52.404;13.532;2023-09-19T06:45:14;2.92;;;1.58;;
52480;SDS011;38393;52.404;13.532;2023-09-19T06:47:44;5.85;;;2.22;;
52480;SDS011;38393;52.404;13.532;2023-09-19T06:50:10;4.93;;;1.90;;
52480;SDS011;38393;52.404;13.532;2023-09-19T06:52:42;12.07;;;1.75;;
52480;SDS011;38393;52.404;13.532;2023-09-19T06:55:08;4.70;;;1.80;;
52480;SDS011;38393;52.404;13.532;2023-09-19T06:57:35;2.55;;;1.60;;
52480;SDS011;38393;52.404;13.532;2023-09-19T07:00:00;3.78;;;1.63;;
52480;SDS011;38393;52.404;13.532;2023-09-19T07:02:26;3.90;;;1.70;;
52480;SDS011;38393;52.404;13.532;2023-09-19T07:04:52;4.20;;;1.60;;
52480;SDS011;38393;52.404;13.532;2023-09-19T07:07:17;4.30;;;1.60;;
52480;SDS011;38393;52.404;13.532;2023-09-19T07:09:43;2.05;;;1.50;;
52480;SDS011;38393;52.404;13.532;2023-09-19T07:12:08;4.70;;;1.70;;
52480;SDS011;38393;52.404;13.532;2023-09-19T07:14:34;2.83;;;1.70;;
52480;SDS011;38393;52.404;13.532;2023-09-19T07:16:59;3.85;;;1.50;;
52480;SDS011;38393;52.404;13.532;2023-09-19T07:19:25;3.97;;;1.63;;
52480;SDS011;38393;52.404;13.532;2023-09-19T07:21:53;2.90;;;1.60;;
52480;SDS011;38393;52.404;13.532;2023-09-19T07:24:19;2.88;;;1.80;;
52480;SDS011;38393;52.404;13.532;2023-09-19T07:26:47;3.30;;;1.73;;
52480;SDS011;38393;52.404;13.532;2023-09-19T07:29:13;5.20;;;1.88;;
52480;SDS011;38393;52.404;13.532;2023-09-19T07:31:38;4.93;;;1.85;;
52480;SDS011;38393;52.404;13.532;2023-09-19T07:34:04;4.22;;;1.77;;
52480;SDS011;38393;52.404;13.532;2023-09-19T07:36:30;5.07;;;1.88;;
52480;SDS011;38393;52.404;13.532;2023-09-19T07:38:57;6.65;;;1.75;;
52480;SDS011;38393;52.404;13.532;2023-09-19T07:41:23;3.72;;;1.80;;
52480;SDS011;38393;52.404;13.532;2023-09-19T07:43:49;4.25;;;1.80;;
52480;SDS011;38393;52.404;13.532;2023-09-19T07:46:14;3.83;;;1.85;;
52480;SDS011;38393;52.404;13.532;2023-09-19T07:48:40;2.67;;;1.65;;
52480;SDS011;38393;52.404;13.532;2023-09-19T07:51:06;4.72;;;2.28;;
52480;SDS011;38393;52.404;13.532;2023-09-19T07:53:33;4.82;;;2.50;;
52480;SDS011;38393;52.404;13.532;2023-09-19T07:56:05;3.70;;;2.17;;
52480;SDS011;38393;52.404;13.532;2023-09-19T07:58:32;4.45;;;2.30;;
52480;SDS011;38393;52.404;13.532;2023-09-19T08:01:08;4.72;;;2.60;;
52480;SDS011;38393;52.404;13.532;2023-09-19T08:03:35;7.88;;;2.40;;
52480;SDS011;38393;52.404;13.532;2023-09-19T08:06:05;4.90;;;2.10;;
52480;SDS011;38393;52.404;13.532;2023-09-19T08:08:32;3.03;;;2.20;;
52480;SDS011;38393;52.404;13.532;2023-09-19T08:11:04;5.07;;;2.00;;
52480;SDS011;38393;52.404;13.532;2023-09-19T08:13:38;3.83;;;1.88;;
52480;SDS011;38393;52.404;13.532;2023-09-19T08:16:11;6.45;;;2.20;;
52480;SDS011;38393;52.404;13.532;2023-09-19T08:18:37;3.97;;;2.20;;
52480;SDS011;38393;52.404;13.532;2023-09-19T08:21:06;5.97;;;2.20;;
52480;SDS011;38393;52.404;13.532;2023-09-19T08:23:36;4.97;;;2.30;;
52480;SDS011;38393;52.404;13.532;2023-09-19T08:26:03;3.03;;;1.90;;
52480;SDS011;38393;52.404;13.532;2023-09-19T08:28:32;4.40;;;1.80;;
52480;SDS011;38393;52.404;13.532;2023-09-19T08:31:02;6.32;;;1.90;;
52480;SDS011;38393;52.404;13.532;2023-09-19T08:33:29;4.43;;;2.00;;
52480;SDS011;38393;52.404;13.532;2023-09-19T08:35:58;3.90;;;1.90;;
52480;SDS011;38393;52.404;13.532;2023-09-19T08:38:24;5.80;;;2.20;;
52480;SDS011;38393;52.404;13.532;2023-09-19T08:40:56;4.43;;;2.10;;
52480;SDS011;38393;52.404;13.532;2023-09-19T08:43:23;5.15;;;2.30;;
52480;SDS011;38393;52.404;13.532;2023-09-19T08:45:49;4.85;;;2.38;;
52480;SDS011;38393;52.404;13.532;2023-09-19T08:48:26;6.97;;;2.45;;
52480;SDS011;38393;52.404;13.532;2023-09-19T08:50:56;6.60;;;2.45;;
52480;SDS011;38393;52.404;13.532;2023-09-19T08:56:08;5.72;;;2.38;;
52480;SDS011;38393;52.404;13.532;2023-09-19T08:58:41;5.40;;;2.38;;
52480;SDS011;38393;52.404;13.532;2023-09-19T09:01:15;7.35;;;2.35;;
52480;SDS011;38393;52.404;13.532;2023-09-19T09:03:42;4.95;;;2.20;;
52480;SDS011;38393;52.404;13.532;2023-09-19T09:06:12;5.07;;;1.92;;
52480;SDS011;38393;52.404;13.532;2023-09-19T09:08:39;3.55;;;2.03;;
52480;SDS011;38393;52.404;13.532;2023-09-19T09:11:05;6.35;;;2.00;;
52480;SDS011;38393;52.404;13.532;2023-09-19T09:13:32;4.22;;;1.80;;
52480;SDS011;38393;52.404;13.532;2023-09-19T09:16:00;3.33;;;2.17;;
52480;SDS011;38393;52.404;13.532;2023-09-19T09:18:25;7.25;;;2.22;;
52480;SDS011;38393;52.404;13.532;2023-09-19T09:20:52;4.78;;;2.13;;
52480;SDS011;38393;52.404;13.532;2023-09-19T09:23:18;7.13;;;2.17;;
52480;SDS011;38393;52.404;13.532;2023-09-19T09:25:53;4.10;;;2.05;;
52480;SDS011;38393;52.404;13.532;2023-09-19T09:28:20;5.03;;;2.00;;
52480;SDS011;38393;52.404;13.532;2023-09-19T09:30:47;8.93;;;2.47;;
52480;SDS011;38393;52.404;13.532;2023-09-19T09:33:13;5.80;;;2.05;;
52480;SDS011;38393;52.404;13.532;2023-09-19T09:35:56;10.60;;;2.53;;
52480;SDS011;38393;52.404;13.532;2023-09-19T09:38:28;5.05;;;2.08;;
52480;SDS011;38393;52.404;13.532;2023-09-19T09:40:57;4.30;;;2.17;;
52480;SDS011;38393;52.404;13.532;2023-09-19T09:43:33;5.53;;;2.00;;
52480;SDS011;38393;52.404;13.532;2023-09-19T09:46:07;3.58;;;1.90;;
52480;SDS011;38393;52.404;13.532;2023-09-19T09:51:42;10.15;;;2.45;;
52480;SDS011;38393;52.404;13.532;2023-09-19T09:54:22;4.47;;;1.80;;
52480;SDS011;38393;52.404;13.532;2023-09-19T09:56:52;8.50;;;2.03;;
52480;SDS011;38393;52.404;13.532;2023-09-19T10:02:11;7.60;;;1.80;;
52480;SDS011;38393;52.404;13.532;2023-09-19T10:04:49;2.70;;;1.63;;
52480;SDS011;38393;52.404;13.532;2023-09-19T10:07:30;3.42;;;1.65;;
52480;SDS011;38393;52.404;13.532;2023-09-19T10:10:32;4.05;;;1.92;;
52480;SDS011;38393;52.404;13.532;2023-09-19T10:13:08;8.68;;;1.80;;
52480;SDS011;38393;52.404;13.532;2023-09-19T10:15:40;6.40;;;1.98;;
52480;SDS011;38393;52.404;13.532;2023-09-19T10:18:11;6.97;;;1.73;;
52480;SDS011;38393;52.404;13.532;2023-09-19T10:20:42;4.47;;;1.80;;
52480;SDS011;38393;52.404;13.532;2023-09-19T10:23:10;4.70;;;1.85;;
52480;SDS011;38393;52.404;13.532;2023-09-19T10:25:42;3.72;;;1.60;;
52480;SDS011;38393;52.404;13.532;2023-09-19T10:28:12;4.85;;;1.90;;
52480;SDS011;38393;52.404;13.532;2023-09-19T10:30:45;2.90;;;1.65;;
52480;SDS011;38393;52.404;13.532;2023-09-19T10:33:15;3.05;;;1.73;;
52480;SDS011;38393;52.404;13.532;2023-09-19T10:35:45;6.45;;;2.35;;
52480;SDS011;38393;52.404;13.532;2023-09-19T10:38:13;11.38;;;1.90;;
52480;SDS011;38393;52.404;13.532;2023-09-19T10:40:41;4.47;;;1.63;;
52480;SDS011;38393;52.404;13.532;2023-09-19T10:43:12;4.25;;;1.90;;
52480;SDS011;38393;52.404;13.532;2023-09-19T10:45:44;4.45;;;1.67;;
52480;SDS011;38393;52.404;13.532;2023-09-19T10:48:15;7.95;;;2.00;;
52480;SDS011;38393;52.404;13.532;2023-09-19T10:53:13;5.05;;;1.80;;
52480;SDS011;38393;52.404;13.532;2023-09-19T10:55:41;7.13;;;2.28;;
52480;SDS011;38393;52.404;13.532;2023-09-19T10:58:17;4.35;;;1.63;;
52480;SDS011;38393;52.404;13.532;2023-09-19T11:00:59;4.80;;;1.92;;
52480;SDS011;38393;52.404;13.532;2023-09-19T11:03:30;5.40;;;2.05;;
52480;SDS011;38393;52.404;13.532;2023-09-19T11:06:06;5.90;;;1.73;;
52480;SDS011;38393;52.404;13.532;2023-09-19T11:08:53;4.45;;;1.80;;
52480;SDS011;38393;52.404;13.532;2023-09-19T11:30:46;6.65;;;2.10;;
52480;SDS011;38393;52.404;13.532;2023-09-19T11:33:31;6.97;;;1.90;;
52480;SDS011;38393;52.404;13.532;2023-09-19T11:36:07;2.90;;;1.60;;
52480;SDS011;38393;52.404;13.532;2023-09-19T11:43:50;4.82;;;1.73;;
52480;SDS011;38393;52.404;13.532;2023-09-19T11:46:17;6.53;;;1.33;;
52480;SDS011;38393;52.404;13.532;2023-09-19T11:48:47;4.80;;;1.50;;
52480;SDS011;38393;52.404;13.532;2023-09-19T11:51:13;4.00;;;1.65;;
52480;SDS011;38393;52.404;13.532;2023-09-19T11:53:52;2.80;;;1.63;;
52480;SDS011;38393;52.404;13.532;2023-09-19T11:56:19;3.50;;;1.50;;
52480;SDS011;38393;52.404;13.532;2023-09-19T11:58:46;5.45;;;1.83;;
52480;SDS011;38393;52.404;13.532;2023-09-19T12:01:21;4.28;;;1.67;;
52480;SDS011;38393;52.404;13.532;2023-09-19T12:03:58;3.30;;;1.52;;
52480;SDS011;38393;52.404;13.532;2023-09-19T12:06:25;3.95;;;1.55;;
52480;SDS011;38393;52.404;13.532;2023-09-19T12:08:52;4.05;;;1.63;;
52480;SDS011;38393;52.404;13.532;2023-09-19T12:11:22;4.47;;;1.42;;
52480;SDS011;38393;52.404;13.532;2023-09-19T12:13:48;6.63;;;1.73;;
52480;SDS011;38393;52.404;13.532;2023-09-19T12:16:15;6.95;;;1.80;;
52480;SDS011;38393;52.404;13.532;2023-09-19T12:18:42;3.67;;;1.70;;
52480;SDS011;38393;52.404;13.532;2023-09-19T12:21:25;7.30;;;1.63;;
52480;SDS011;38393;52.404;13.532;2023-09-19T12:23:59;9.30;;;1.50;;
52480;SDS011;38393;52.404;13.532;2023-09-19T12:26:26;3.40;;;1.30;;
52480;SDS011;38393;52.404;13.532;2023-09-19T12:28:54;4.35;;;1.45;;
52480;SDS011;38393;52.404;13.532;2023-09-19T12:31:20;3.67;;;1.40;;
52480;SDS011;38393;52.404;13.532;2023-09-19T12:33:46;6.65;;;1.52;;
52480;SDS011;38393;52.404;13.532;2023-09-19T12:36:22;3.75;;;1.25;;
52480;SDS011;38393;52.404;13.532;2023-09-19T12:38:50;3.83;;;1.40;;
52480;SDS011;38393;52.404;13.532;2023-09-19T12:41:17;1.92;;;1.20;;
52480;SDS011;38393;52.404;13.532;2023-09-19T12:43:43;4.35;;;1.65;;
52480;SDS011;38393;52.404;13.532;2023-09-19T12:46:09;3.47;;;1.40;;
52480;SDS011;38393;52.404;13.532;2023-09-19T12:48:35;7.75;;;2.10;;
52480;SDS011;38393;52.404;13.532;2023-09-19T12:51:06;4.90;;;1.17;;
52480;SDS011;38393;52.404;13.532;2023-09-19T12:53:33;3.85;;;1.30;;
52480;SDS011;38393;52.404;13.532;2023-09-19T12:56:02;3.70;;;1.42;;
52480;SDS011;38393;52.404;13.532;2023-09-19T12:58:33;4.25;;;1.52;;
52480;SDS011;38393;52.404;13.532;2023-09-19T13:01:00;6.38;;;1.60;;
52480;SDS011;38393;52.404;13.532;2023-09-19T13:03:27;4.30;;;1.35;;
52480;SDS011;38393;52.404;13.532;2023-09-19T13:06:03;2.17;;;1.35;;
52480;SDS011;38393;52.404;13.532;2023-09-19T13:08:37;6.68;;;1.60;;
52480;SDS011;38393;52.404;13.532;2023-09-19T13:13:46;2.00;;;1.13;;
52480;SDS011;38393;52.404;13.532;2023-09-19T13:16:33;3.47;;;1.30;;
52480;SDS011;38393;52.404;13.532;2023-09-19T13:18:58;6.07;;;1.40;;
52480;SDS011;38393;52.404;13.532;2023-09-19T13:21:27;2.22;;;1.20;;
52480;SDS011;38393;52.404;13.532;2023-09-19T13:24:21;3.15;;;1.20;;
52480;SDS011;38393;52.404;13.532;2023-09-19T13:26:50;8.32;;;1.27;;
52480;SDS011;38393;52.404;13.532;2023-09-19T13:29:16;2.42;;;1.17;;
52480;SDS011;38393;52.404;13.532;2023-09-19T13:31:52;4.97;;;1.30;;
52480;SDS011;38393;52.404;13.532;2023-09-19T13:34:18;4.10;;;1.02;;
52480;SDS011;38393;52.404;13.532;2023-09-19T13:36:44;2.38;;;1.02;;
52480;SDS011;38393;52.404;13.532;2023-09-19T13:39:13;2.03;;;0.95;;
52480;SDS011;38393;52.404;13.532;2023-09-19T13:41:40;3.10;;;1.20;;
52480;SDS011;38393;52.404;13.532;2023-09-19T13:44:07;4.32;;;1.00;;
52480;SDS011;38393;52.404;13.532;2023-09-19T13:46:33;1.83;;;0.95;;
52480;SDS011;38393;52.404;13.532;2023-09-19T13:49:03;2.58;;;1.35;;
52480;SDS011;38393;52.404;13.532;2023-09-19T13:51:29;4.43;;;1.10;;
52480;SDS011;38393;52.404;13.532;2023-09-19T13:53:56;5.00;;;1.25;;
52480;SDS011;38393;52.404;13.532;2023-09-19T13:56:21;2.70;;;1.20;;
52480;SDS011;38393;52.404;13.532;2023-09-19T13:58:47;4.03;;;1.42;;
52480;SDS011;38393;52.404;13.532;2023-09-19T14:01:12;5.90;;;1.27;;
52480;SDS011;38393;52.404;13.532;2023-09-19T14:03:41;1.98;;;1.10;;
52480;SDS011;38393;52.404;13.532;2023-09-19T14:06:14;3.17;;;1.20;;
52480;SDS011;38393;52.404;13.532;2023-09-19T14:08:41;4.32;;;1.42;;
52480;SDS011;38393;52.404;13.532;2023-09-19T14:11:07;7.50;;;1.40;;
52480;SDS011;38393;52.404;13.532;2023-09-19T14:13:32;2.85;;;1.40;;
52480;SDS011;38393;52.404;13.532;2023-09-19T14:16:02;2.78;;;1.33;;
52480;SDS011;38393;52.404;13.532;2023-09-19T14:18:37;9.07;;;1.67;;
52480;SDS011;38393;52.404;13.532;2023-09-19T14:21:03;3.33;;;1.38;;
52480;SDS011;38393;52.404;13.532;2023-09-19T14:23:34;4.90;;;1.33;;
52480;SDS011;38393;52.404;13.532;2023-09-19T14:26:03;2.10;;;1.30;;
52480;SDS011;38393;52.404;13.532;2023-09-19T14:28:30;7.10;;;1.30;;
52480;SDS011;38393;52.404;13.532;2023-09-19T14:30:58;3.22;;;1.20;;
52480;SDS011;38393;52.404;13.532;2023-09-19T14:33:29;8.93;;;1.55;;
52480;SDS011;38393;52.404;13.532;2023-09-19T14:35:56;2.75;;;1.25;;
52480;SDS011;38393;52.404;13.532;2023-09-19T14:38:21;2.65;;;1.15;;
52480;SDS011;38393;52.404;13.532;2023-09-19T14:40:47;4.32;;;1.40;;
52480;SDS011;38393;52.404;13.532;2023-09-19T14:43:15;3.78;;;1.25;;
52480;SDS011;38393;52.404;13.532;2023-09-19T14:45:40;3.72;;;1.30;;
52480;SDS011;38393;52.404;13.532;2023-09-19T14:48:06;1.83;;;1.08;;
52480;SDS011;38393;52.404;13.532;2023-09-19T14:50:32;2.15;;;1.23;;
52480;SDS011;38393;52.404;13.532;2023-09-19T14:52:58;1.95;;;1.10;;
52480;SDS011;38393;52.404;13.532;2023-09-19T14:55:26;4.97;;;1.55;;
52480;SDS011;38393;52.404;13.532;2023-09-19T14:57:54;2.83;;;1.40;;
52480;SDS011;38393;52.404;13.532;2023-09-19T15:00:21;5.57;;;1.35;;
52480;SDS011;38393;52.404;13.532;2023-09-19T15:02:48;2.72;;;1.20;;
52480;SDS011;38393;52.404;13.532;2023-09-19T15:05:15;3.85;;;1.45;;
52480;SDS011;38393;52.404;13.532;2023-09-19T15:07:41;5.28;;;1.30;;
52480;SDS011;38393;52.404;13.532;2023-09-19T15:10:06;3.28;;;1.33;;
52480;SDS011;38393;52.404;13.532;2023-09-19T15:12:35;4.88;;;1.50;;
52480;SDS011;38393;52.404;13.532;2023-09-19T15:15:02;3.67;;;1.40;;
52480;SDS011;38393;52.404;13.532;2023-09-19T15:17:31;2.50;;;1.27;;
52480;SDS011;38393;52.404;13.532;2023-09-19T15:19:57;3.50;;;1.40;;
52480;SDS011;38393;52.404;13.532;2023-09-19T15:22:22;5.35;;;1.30;;
52480;SDS011;38393;52.404;13.532;2023-09-19T15:24:48;3.67;;;1.40;;
52480;SDS011;38393;52.404;13.532;2023-09-19T15:27:13;3.25;;;1.38;;
52480;SDS011;38393;52.404;13.532;2023-09-19T15:29:39;5.93;;;1.23;;